Haywood City, Missouri
Current Conditions -  °F | °C
As of 10:53 AM on Thursday 23 Oct 2014 (Local Time) from KCGI Reporting Station
Clear Clear  
Wind Chill: 57°   Ceiling: Unl
Heat Index: 57°   Visibility: 10mi
Dew Point: 46°   Wind: 3mph
Humidity: 67%   Direction: 150°SSE
Pressure: 30.24"   Gusts: NA
Location:  37.0868°N, 89.7125°W
Report Text: KCGI 231553Z 15003KT 10SM CLR 14/08 A3024 RMK AO2 SLP242 T01390078
Loading
Personal Weather Stations






























Interactive Weather Map
Tropical Storm Tracking
New forecast layout! Learn more

10-Day Weather Forecast

Advertisements
Track Severe Weather on mobile